Fecha, hora, temperatura, viento dirección y velocidad, humedad y presión.

  • 19-03-2019 23:00:00 | 11.90°C | Norte |9.00 km/h | 68.00% | 1026.00 hPa
  • 19-03-2019 22:00:00 | 12.40°C | Noroeste |8.00 km/h | 66.00% | 1025.60 hPa
  • 19-03-2019 21:00:00 | 12.00°C | Oeste |7.00 km/h | 68.00% | 1025.00 hPa
  • 19-03-2019 20:00:00 | 12.50°C | Oeste |9.00 km/h | 68.00% | 1024.40 hPa
  • 19-03-2019 19:00:00 | 13.30°C | Sudoeste |7.00 km/h | 60.00% | 1023.90 hPa
  • 19-03-2019 18:00:00 | 13.60°C | Oeste |14.00 km/h | 56.00% | 1023.20 hPa
  • 19-03-2019 17:00:00 | 15.00°C | Sudoeste |18.00 km/h | 53.00% | 1022.60 hPa
  • 19-03-2019 16:00:00 | 15.30°C | Sudoeste |21.00 km/h | 55.00% | 1022.40 hPa
  • 19-03-2019 15:00:00 | 14.50°C | Sudoeste |17.00 km/h | 57.00% | 1022.10 hPa
  • 19-03-2019 14:00:00 | 13.80°C | Sur |13.00 km/h | 62.00% | 1022.40 hPa
  • 19-03-2019 13:00:00 | 14.90°C | Sudeste |16.00 km/h | 60.00% | 1022.50 hPa
  • 19-03-2019 12:00:00 | 14.60°C | Sudeste |14.00 km/h | 61.00% | 1022.50 hPa
  • 19-03-2019 11:00:00 | 14.40°C | Sudeste |14.00 km/h | 55.00% | 1022.10 hPa
  • 19-03-2019 10:00:00 | 13.80°C | Norte |18.00 km/h | 42.00% | 1021.90 hPa
  • 19-03-2019 09:00:00 | 11.70°C | Norte |13.00 km/h | 57.00% | 1021.80 hPa
  • 19-03-2019 08:00:00 | 10.30°C | Norte |11.00 km/h | 67.00% | 1021.70 hPa
  • 19-03-2019 07:00:00 | 10.00°C | Norte |14.00 km/h | 69.00% | 1021.60 hPa
  • 19-03-2019 06:00:00 | 10.10°C | Norte |11.00 km/h | 70.00% | 1021.20 hPa
  • 19-03-2019 05:00:00 | 10.10°C | Norte |11.00 km/h | 69.00% | 1021.40 hPa
  • 19-03-2019 04:00:00 | 10.30°C | Norte |16.00 km/h | 69.00% | 1021.60 hPa
  • 19-03-2019 03:00:00 | 10.10°C | Norte |13.00 km/h | 70.00% | 1022.00 hPa
  • 19-03-2019 02:00:00 | 10.00°C | Norte |9.00 km/h | 70.00% | 1022.20 hPa
  • 19-03-2019 01:00:00 | 9.70°C | Norte |12.00 km/h | 71.00% | 1022.80 hPa
  • 19-03-2019 00:00:00 | 9.30°C | Norte |13.00 km/h | 72.00% | 1023.10 hPa
    • diseño web asturias Información sobre el estado de las mareas, altura de la marejada, temperatura del agua y otros datos de Gijón en Asturias.

      Surf Gijón